Time;durP1;ratioP1;P1;durP2;ratioP2;P2;SDS_P1;SDS_P2;PMS_P1;PMS_P2;Temp;Humidity;BMP_temperature;BMP_pressure;BME280_temperature;BME280_humidity;BME280_pressure;Samples;Min_cycle;Max_cycle;Signal;HPM_P1;HPM_P2
2022/12/01 00:00:56;;;;;;;17.10;10.40;;;;;;;2.05;82.02;101929.13;100156;1300;97625;-56
2022/12/01 00:03:31;;;;;;;16.20;10.30;;;;;;;2.07;82.10;101933.85;100146;1294;95484;-57
2022/12/01 00:06:09;;;;;;;15.70;10.20;;;;;;;2.08;82.07;101930.04;100199;1301;81472;-57
2022/12/01 00:08:39;;;;;;;15.40;10.90;;;;;;;2.11;82.11;101932.30;100196;1300;88018;-56
2022/12/01 00:11:11;;;;;;;16.10;10.10;;;;;;;2.11;82.19;101933.23;100214;1295;80387;-57
2022/12/01 00:13:42;;;;;;;16.00;10.10;;;;;;;2.15;82.15;101933.30;100184;1294;97073;-60
2022/12/01 00:16:17;;;;;;;15.40;9.50;;;;;;;2.17;82.22;101936.36;100137;1302;95173;-60
2022/12/01 00:18:54;;;;;;;15.00;10.90;;;;;;;2.17;82.25;101931.93;100187;1301;82973;-59
2022/12/01 00:21:26;;;;;;;16.80;10.30;;;;;;;2.19;82.14;101932.20;100154;1295;87849;-59
2022/12/01 00:23:59;;;;;;;16.30;10.00;;;;;;;2.15;82.23;101933.46;100154;1293;81074;-59
2022/12/01 00:26:29;;;;;;;15.70;9.60;;;;;;;2.16;82.31;101933.77;100158;1295;98937;-59
2022/12/01 00:29:01;;;;;;;17.20;11.20;;;;;;;2.14;82.32;101940.63;100122;1295;93705;-59
2022/12/01 00:31:31;;;;;;;17.30;10.20;;;;;;;2.18;82.20;101940.79;100135;1294;82108;-60
2022/12/01 00:34:00;;;;;;;14.10;9.90;;;;;;;2.13;82.22;101939.79;100148;1300;87981;-57
2022/12/01 00:36:32;;;;;;;13.70;10.10;;;;;;;2.08;82.47;101936.43;100156;1293;81292;-56
2022/12/01 00:39:04;;;;;;;14.30;10.30;;;;;;;2.11;82.46;101934.13;100143;1300;98740;-56
2022/12/01 00:41:38;;;;;;;14.10;9.60;;;;;;;2.12;82.44;101932.27;100134;1300;94657;-57
2022/12/01 00:44:08;;;;;;;17.90;10.00;;;;;;;2.05;82.53;101934.67;100175;1295;82754;-59
2022/12/01 00:46:38;;;;;;;14.20;9.50;;;;;;;2.06;82.54;101930.90;100156;1294;87663;-59
2022/12/01 00:49:07;;;;;;;13.80;9.40;;;;;;;2.06;82.63;101926.58;100174;1300;81893;-59
2022/12/01 00:51:38;;;;;;;14.90;10.50;;;;;;;2.11;82.57;101920.91;100199;1300;99224;-60
2022/12/01 00:54:13;;;;;;;15.70;10.50;;;;;;;2.12;82.64;101915.20;100176;1294;95483;-59
2022/12/01 00:56:43;;;;;;;16.80;10.90;;;;;;;2.16;82.54;101921.71;100206;1300;79471;-59
2022/12/01 00:59:14;;;;;;;14.50;10.40;;;;;;;2.13;82.62;101918.49;100159;1294;89009;-60
2022/12/01 01:01:45;;;;;;;16.60;10.80;;;;;;;2.11;82.50;101916.30;100147;1300;79636;-59
2022/12/01 01:04:15;;;;;;;16.60;11.30;;;;;;;2.12;82.55;101913.80;100180;1300;99528;-57
2022/12/01 01:06:45;;;;;;;15.70;11.10;;;;;;;2.11;82.72;101915.07;100145;1293;95350;-57
2022/12/01 01:09:15;;;;;;;16.30;10.60;;;;;;;2.06;82.79;101912.24;100155;1293;82486;-60
2022/12/01 01:11:44;;;;;;;16.90;11.30;;;;;;;2.03;82.55;101908.52;100142;1296;87172;-60
2022/12/01 01:14:13;;;;;;;16.60;11.20;;;;;;;1.99;82.60;101908.92;100138;1295;80175;-57
2022/12/01 01:16:44;;;;;;;15.40;10.70;;;;;;;1.93;82.92;101912.72;100110;1301;99567;-57
2022/12/01 01:19:14;;;;;;;15.90;11.10;;;;;;;1.88;82.97;101908.06;100067;1296;95117;-57
2022/12/01 01:21:43;;;;;;;15.10;9.90;;;;;;;1.91;82.98;101901.42;100120;1293;82288;-57
2022/12/01 01:24:15;;;;;;;15.80;11.20;;;;;;;1.92;83.14;101909.55;100090;1294;87260;-56
2022/12/01 01:26:46;;;;;;;14.70;10.40;;;;;;;1.94;83.20;101911.03;100113;1293;80569;-56
2022/12/01 01:29:18;;;;;;;15.30;10.30;;;;;;;1.92;83.18;101912.05;100145;1294;99730;-56
2022/12/01 01:31:46;;;;;;;15.20;10.90;;;;;;;1.93;83.11;101906.66;100119;1295;93044;-56
2022/12/01 01:34:20;;;;;;;14.00;9.80;;;;;;;1.95;83.21;101903.89;100162;1300;80043;-56
2022/12/01 01:36:55;;;;;;;15.90;10.00;;;;;;;1.98;83.11;101900.66;100188;1301;87207;-56
2022/12/01 01:39:28;;;;;;;14.50;10.60;;;;;;;1.98;83.20;101901.02;100206;1301;81591;-56
2022/12/01 01:42:06;;;;;;;15.60;10.00;;;;;;;1.99;83.27;101900.23;100201;1293;99340;-57
2022/12/01 01:44:56;;;;;;;14.90;10.50;;;;;;;2.00;83.15;101908.33;100250;1291;95873;-60
2022/12/01 01:47:31;;;;;;;15.50;10.50;;;;;;;2.03;83.16;101907.45;100225;1294;82180;-56
2022/12/01 01:50:09;;;;;;;14.70;9.80;;;;;;;2.05;83.25;101905.67;100169;1298;88881;-59
2022/12/01 01:52:46;;;;;;;16.00;10.00;;;;;;;2.05;83.27;101909.97;100164;1295;80737;-58
2022/12/01 01:55:16;;;;;;;14.30;9.80;;;;;;;1.98;83.40;101909.69;100175;1293;99425;-59
2022/12/01 01:57:46;;;;;;;15.80;11.10;;;;;;;2.01;83.30;101907.73;100129;1294;95971;-56
2022/12/01 02:00:25;;;;;;;14.80;9.60;;;;;;;2.03;83.32;101904.04;100100;1294;82408;-56
2022/12/01 02:03:02;;;;;;;17.20;10.80;;;;;;;1.95;83.46;101910.41;100135;1293;88074;-59
2022/12/01 02:05:37;;;;;;;12.40;9.90;;;;;;;1.96;83.54;101910.92;100111;1296;81039;-59
2022/12/01 02:08:11;;;;;;;15.40;10.90;;;;;;;1.99;83.32;101909.48;100136;1293;99600;-57
2022/12/01 02:11:15;;;;;;;15.00;10.30;;;;;;;2.00;83.48;101904.06;100101;1301;93266;-57
2022/12/01 02:14:00;;;;;;;15.60;10.10;;;;;;;2.00;83.43;101907.77;100164;1300;80652;-59
2022/12/01 02:16:41;;;;;;;13.60;10.70;;;;;;;1.98;83.51;101907.40;100150;1297;88223;-59
2022/12/01 02:20:04;;;;;;;13.80;10.30;;;;;;;1.98;83.66;101912.39;100136;1293;80098;-58
2022/12/01 02:23:00;;;;;;;12.70;9.70;;;;;;;1.89;83.70;101910.67;100163;1293;99911;-59
2022/12/01 02:25:49;;;;;;;15.20;10.40;;;;;;;1.86;83.81;101907.11;100176;1299;94338;-58
2022/12/01 02:28:48;;;;;;;14.40;10.50;;;;;;;1.87;83.96;101906.14;100231;1294;83184;-58
2022/12/01 02:31:26;;;;;;;14.10;10.70;;;;;;;1.89;83.90;101903.73;100176;1301;88166;-58
2022/12/01 02:34:10;;;;;;;14.30;11.10;;;;;;;1.87;84.07;101899.75;100159;1293;80365;-56
2022/12/01 02:36:50;;;;;;;15.10;11.60;;;;;;;1.87;84.16;101898.38;100152;1294;99465;-56
2022/12/01 02:39:30;;;;;;;16.30;11.80;;;;;;;1.88;84.11;101898.29;100137;1295;95940;-57
2022/12/01 02:42:08;;;;;;;14.50;10.60;;;;;;;1.86;84.12;101894.27;100143;1287;83212;-56
2022/12/01 02:44:43;;;;;;;16.20;11.90;;;;;;;1.89;84.17;101894.66;100146;1300;89625;-58
2022/12/01 02:47:16;;;;;;;17.50;10.90;;;;;;;1.90;84.25;101891.25;100080;1294;80575;-58
2022/12/01 02:49:50;;;;;;;15.80;11.70;;;;;;;1.80;84.33;101893.24;100057;1295;98850;-56
2022/12/01 02:52:25;;;;;;;15.90;10.50;;;;;;;1.80;84.40;101897.19;100083;1294;95163;-56
2022/12/01 02:54:59;;;;;;;15.20;10.50;;;;;;;1.79;84.44;101899.00;100153;1293;82144;-57
2022/12/01 02:57:33;;;;;;;16.30;12.40;;;;;;;1.73;84.70;101896.35;100130;1300;89093;-57
2022/12/01 03:00:03;;;;;;;17.40;11.90;;;;;;;1.76;84.62;101894.60;100127;1293;81747;-60
2022/12/01 03:02:48;;;;;;;15.70;11.40;;;;;;;1.79;84.68;101897.63;100144;1294;98421;-57
2022/12/01 03:05:29;;;;;;;14.50;11.00;;;;;;;1.80;84.75;101896.30;100140;1301;93008;-57
2022/12/01 03:08:12;;;;;;;17.30;11.60;;;;;;;1.76;84.76;101896.19;100147;1301;81522;-60
2022/12/01 03:10:54;;;;;;;17.40;12.10;;;;;;;1.77;84.68;101891.66;100149;1295;87989;-60
2022/12/01 03:13:40;;;;;;;16.00;12.30;;;;;;;1.85;84.68;101885.33;100118;1298;82003;-56
2022/12/01 03:16:17;;;;;;;16.20;12.20;;;;;;;1.89;84.64;101885.45;100237;1293;98635;-56
2022/12/01 03:18:55;;;;;;;16.50;12.00;;;;;;;1.92;84.71;101884.19;100132;1299;93574;-59
2022/12/01 03:21:33;;;;;;;16.30;11.30;;;;;;;1.85;84.71;101887.62;100158;1293;82115;-59
2022/12/01 03:24:13;;;;;;;16.40;11.70;;;;;;;1.81;84.83;101884.52;100122;1294;88329;-59
2022/12/01 03:26:46;;;;;;;16.90;12.30;;;;;;;1.83;84.80;101883.36;100153;1295;80464;-59
2022/12/01 03:29:19;;;;;;;17.10;12.80;;;;;;;1.83;84.91;101887.27;100160;1293;100305;-56
2022/12/01 03:31:58;;;;;;;16.70;12.50;;;;;;;1.83;84.81;101882.76;100103;1295;94078;-57
2022/12/01 03:34:36;;;;;;;17.00;12.60;;;;;;;1.84;84.88;101883.44;100154;1293;83398;-59
2022/12/01 03:37:11;;;;;;;15.20;11.70;;;;;;;1.85;84.91;101880.70;100104;1294;89164;-59
2022/12/01 03:39:46;;;;;;;18.10;12.70;;;;;;;1.81;85.07;101887.54;100132;1294;80555;-59
2022/12/01 03:42:23;;;;;;;17.70;12.30;;;;;;;1.79;85.05;101888.88;100096;1301;99765;-59
2022/12/01 03:44:59;;;;;;;17.50;12.70;;;;;;;1.77;85.04;101888.83;100150;1293;95763;-59
2022/12/01 03:47:36;;;;;;;16.80;11.80;;;;;;;1.77;85.17;101886.54;100110;1287;83436;-59
2022/12/01 03:50:12;;;;;;;18.10;13.20;;;;;;;1.74;85.18;101885.27;100172;1294;88974;-59
2022/12/01 03:53:05;;;;;;;20.30;14.20;;;;;;;1.77;85.31;101883.70;100179;1300;81178;-57
2022/12/01 03:55:42;;;;;;;19.80;13.20;;;;;;;1.75;85.23;101884.70;100217;1298;100058;-57
2022/12/01 03:58:20;;;;;;;18.50;13.50;;;;;;;1.76;85.29;101884.67;100198;1302;95457;-59
2022/12/01 04:00:54;;;;;;;21.10;14.10;;;;;;;1.71;85.27;101884.43;100186;1295;83621;-59
2022/12/01 04:03:26;;;;;;;17.60;13.10;;;;;;;1.73;85.42;101883.77;100213;1293;89266;-57
2022/12/01 04:05:58;;;;;;;17.50;12.90;;;;;;;1.72;85.23;101882.02;100171;1294;81297;-57
2022/12/01 04:08:30;;;;;;;18.00;12.60;;;;;;;1.67;85.44;101881.86;100174;1298;99518;-57
2022/12/01 04:12:27;;;;;;;18.80;13.80;;;;;;;1.68;85.35;101884.11;100177;1294;93631;-57
2022/12/01 04:13:57;;;;;;;20.60;14.20;;;;;;;1.70;85.38;101884.29;100176;1293;82387;-59
2022/12/01 04:16:47;;;;;;;19.60;13.40;;;;;;;1.73;85.48;101886.56;100139;1294;89033;-59
2022/12/01 04:19:41;;;;;;;22.30;13.90;;;;;;;1.74;85.48;101885.30;100123;1300;81171;-59
2022/12/01 04:22:10;;;;;;;21.00;14.00;;;;;;;1.78;85.29;101880.25;100096;1295;99049;-59
2022/12/01 04:24:39;;;;;;;21.70;14.40;;;;;;;1.76;85.34;101882.17;100119;1294;95194;-59
2022/12/01 04:27:13;;;;;;;23.20;15.30;;;;;;;1.77;85.40;101879.58;100128;1295;81899;-59
2022/12/01 04:29:47;;;;;;;27.30;18.30;;;;;;;1.78;85.39;101878.66;100197;1293;87742;-56
2022/12/01 04:32:17;;;;;;;35.70;21.00;;;;;;;1.77;85.41;101882.26;100178;1295;79116;-57
2022/12/01 04:34:51;;;;;;;29.10;17.80;;;;;;;1.74;85.42;101884.80;100193;1294;99311;-59
2022/12/01 04:37:20;;;;;;;42.10;24.50;;;;;;;1.71;85.45;101886.71;100144;1293;95271;-59
2022/12/01 04:39:50;;;;;;;39.60;21.40;;;;;;;1.75;85.40;101886.11;100217;1294;82982;-59
2022/12/01 04:42:22;;;;;;;25.50;16.30;;;;;;;1.78;85.32;101888.77;100186;1300;88256;-59
2022/12/01 04:44:54;;;;;;;33.70;20.30;;;;;;;1.81;85.43;101886.33;100155;1294;79024;-59
2022/12/01 04:47:26;;;;;;;38.40;22.90;;;;;;;1.81;85.35;101884.73;100181;1293;99823;-59
2022/12/01 04:49:59;;;;;;;39.50;23.60;;;;;;;1.81;85.42;101883.63;100128;1301;94429;-59
2022/12/01 04:52:41;;;;;;;27.50;16.30;;;;;;;1.84;85.28;101888.05;100169;1288;81499;-59
2022/12/01 04:55:14;;;;;;;34.40;21.80;;;;;;;1.83;85.37;101891.86;100125;1298;89048;-56
2022/12/01 04:57:43;;;;;;;24.50;17.20;;;;;;;1.80;85.45;101889.70;100148;1287;81706;-58
2022/12/01 05:00:16;;;;;;;26.30;17.90;;;;;;;1.84;85.30;101897.84;100043;1295;98580;-59
2022/12/01 05:02:48;;;;;;;33.30;20.20;;;;;;;1.91;85.24;101895.80;100035;1294;95263;-57
2022/12/01 05:05:22;;;;;;;27.30;18.50;;;;;;;1.91;85.36;101896.46;100045;1296;83212;-57
2022/12/01 05:07:52;;;;;;;31.30;19.40;;;;;;;1.88;85.29;101896.83;100068;1297;89205;-59
2022/12/01 05:10:26;;;;;;;28.90;18.90;;;;;;;1.91;85.36;101898.81;100075;1297;79816;-60
2022/12/01 05:12:59;;;;;;;23.10;17.70;;;;;;;1.87;85.34;101903.30;100056;1297;100429;-59
2022/12/01 05:15:31;;;;;;;22.10;17.40;;;;;;;1.84;85.31;101902.09;100057;1296;94836;-60
2022/12/01 05:18:02;;;;;;;21.00;15.20;;;;;;;1.81;85.35;101900.50;100048;1301;82935;-57
2022/12/01 05:23:21;;;;;;;23.10;15.70;;;;;;;1.80;85.33;101894.16;100121;1296;81073;-57
2022/12/01 05:25:52;;;;;;;24.30;16.30;;;;;;;1.79;85.33;101898.30;100113;1303;98850;-57
2022/12/01 05:28:23;;;;;;;23.60;15.60;;;;;;;1.72;85.42;101893.44;100108;1302;93712;-57
2022/12/01 05:30:53;;;;;;;26.80;16.20;;;;;;;1.71;85.35;101900.06;100159;1303;82205;-57
2022/12/01 05:33:23;;;;;;;29.40;18.50;;;;;;;1.69;85.44;101896.30;100124;1296;87341;-56
2022/12/01 05:35:55;;;;;;;25.70;16.30;;;;;;;1.72;85.41;101898.38;100100;1297;80053;-56
2022/12/01 05:38:25;;;;;;;;;;;;;;;1.74;85.37;101898.98;100073;1297;99315;-56
2022/12/01 05:40:59;;;;;;;23.20;15.00;;;;;;;1.74;85.40;101898.62;100032;1287;93480;-56
2022/12/01 05:43:30;;;;;;;28.40;18.70;;;;;;;1.74;85.29;101902.34;99939;1299;80047;-56
2022/12/01 05:46:00;;;;;;;27.60;16.90;;;;;;;1.72;85.51;101901.78;100040;1293;89247;-56
2022/12/01 05:48:33;;;;;;;27.10;17.80;;;;;;;1.73;85.36;101900.63;100068;1297;81583;-58
2022/12/01 05:51:10;;;;;;;20.90;14.50;;;;;;;1.75;85.47;101900.29;100075;1297;96909;-59
2022/12/01 05:53:41;;;;;;;27.70;17.30;;;;;;;1.79;85.11;101903.77;100060;1302;94262;-56
2022/12/01 05:56:11;;;;;;;21.00;14.60;;;;;;;1.82;85.34;101907.04;99983;1298;81359;-56
2022/12/01 05:58:41;;;;;;;36.20;20.30;;;;;;;1.82;85.18;101904.17;100080;1296;88456;-59
2022/12/01 06:01:15;;;;;;;36.20;18.40;;;;;;;1.80;85.22;101906.42;100078;1296;81376;-59
2022/12/01 06:03:52;;;;;;;21.30;14.30;;;;;;;1.77;85.28;101905.55;100059;1302;100000;-60
2022/12/01 06:06:22;;;;;;;22.90;15.60;;;;;;;1.79;85.29;101905.06;100043;1296;96194;-61
2022/12/01 06:08:51;;;;;;;22.80;14.10;;;;;;;1.79;85.36;101903.43;100137;1297;83098;-58
2022/12/01 06:11:26;;;;;;;24.90;15.70;;;;;;;1.83;85.18;101904.48;100089;1299;87224;-57
2022/12/01 06:13:58;;;;;;;23.80;15.50;;;;;;;1.80;85.24;101906.38;100111;1297;81432;-59
2022/12/01 06:16:31;;;;;;;25.60;14.80;;;;;;;1.78;85.31;101904.96;100093;1295;99142;-60
2022/12/01 06:19:03;;;;;;;28.60;16.90;;;;;;;1.78;85.29;101904.04;100116;1301;92364;-59
2022/12/01 06:21:34;;;;;;;24.00;14.80;;;;;;;1.80;85.29;101909.10;100068;1294;82356;-59
2022/12/01 06:24:08;;;;;;;24.50;15.10;;;;;;;1.76;85.22;101909.52;100076;1303;87039;-59
2022/12/01 06:26:45;;;;;;;22.90;15.40;;;;;;;1.73;85.44;101904.55;100067;1303;80938;-59
2022/12/01 06:29:17;;;;;;;25.60;15.90;;;;;;;1.74;85.25;101900.40;100065;1297;99439;-57
2022/12/01 06:31:47;;;;;;;19.70;13.70;;;;;;;1.78;85.24;101901.16;99974;1303;96481;-57
2022/12/01 06:34:19;;;;;;;21.00;14.70;;;;;;;1.80;85.27;101898.77;100074;1294;82008;-59
2022/12/01 06:36:50;;;;;;;21.80;15.30;;;;;;;1.81;85.32;101895.88;100055;1304;88963;-59
2022/12/01 06:39:20;;;;;;;21.90;14.40;;;;;;;1.82;85.24;101900.98;100108;1294;80994;-59
2022/12/01 06:41:52;;;;;;;19.00;12.90;;;;;;;1.81;85.25;101898.02;100062;1297;96375;-59
2022/12/01 06:44:25;;;;;;;19.40;13.20;;;;;;;1.80;85.28;101895.02;100058;1294;94273;-59
2022/12/01 06:46:56;;;;;;;20.00;13.20;;;;;;;1.79;85.29;101898.48;100066;1294;82357;-60
2022/12/01 06:49:27;;;;;;;17.90;12.40;;;;;;;1.75;85.40;101901.56;100127;1301;89743;-56
2022/12/01 06:51:55;;;;;;;20.20;13.10;;;;;;;1.80;85.35;101899.13;100081;1296;79886;-56
2022/12/01 06:54:28;;;;;;;19.60;14.40;;;;;;;1.84;85.39;101895.85;100112;1295;98051;-56
2022/12/01 06:57:02;;;;;;;;;;;;;;;1.84;85.36;101892.14;100131;1302;94623;-57
2022/12/01 06:59:33;;;;;;;18.70;12.80;;;;;;;1.91;85.36;101896.70;100089;1300;81008;-59
2022/12/01 07:02:07;;;;;;;15.90;11.90;;;;;;;1.92;85.33;101900.52;100095;1294;89204;-61
2022/12/01 07:04:43;;;;;;;18.40;13.00;;;;;;;1.91;85.32;101899.51;100117;1295;79104;-56
2022/12/01 07:07:23;;;;;;;14.40;11.50;;;;;;;1.94;85.39;101898.82;100075;1296;99265;-57
2022/12/01 07:09:56;;;;;;;17.50;11.70;;;;;;;2.00;85.33;101903.36;100034;1297;95041;-58
2022/12/01 07:12:34;;;;;;;19.40;13.40;;;;;;;2.05;85.17;101901.77;100064;1293;82241;-61
2022/12/01 07:15:14;;;;;;;19.30;13.00;;;;;;;2.07;85.24;101900.23;100066;1299;88224;-58
2022/12/01 07:17:51;;;;;;;18.40;13.10;;;;;;;2.02;85.32;101902.16;100056;1294;80417;-59
2022/12/01 07:20:30;;;;;;;18.40;12.50;;;;;;;1.95;85.25;101899.95;100087;1293;98687;-59
2022/12/01 07:23:01;;;;;;;21.90;14.90;;;;;;;1.90;85.31;101899.94;99966;1300;94833;-57
2022/12/01 07:25:35;;;;;;;27.20;17.00;;;;;;;1.91;85.32;101901.27;100059;1296;82936;-57
2022/12/01 07:28:10;;;;;;;26.30;17.90;;;;;;;1.88;85.33;101901.63;100070;1297;88292;-57
2022/12/01 07:30:42;;;;;;;27.80;16.30;;;;;;;1.87;85.31;101902.98;100106;1302;81418;-61
2022/12/01 07:33:18;;;;;;;28.80;16.30;;;;;;;1.90;85.24;101902.62;99880;1299;330863;-59
2022/12/01 07:35:49;;;;;;;26.50;18.10;;;;;;;1.91;85.22;101904.14;100064;1297;94941;-57
2022/12/01 07:38:23;;;;;;;22.80;16.10;;;;;;;1.90;85.48;101901.86;100051;1297;81802;-58
2022/12/01 07:41:01;;;;;;;24.60;15.10;;;;;;;1.94;85.42;101905.20;99998;1296;89449;-59
2022/12/01 07:43:31;;;;;;;28.20;16.30;;;;;;;1.92;85.37;101906.04;100022;1298;79229;-58
2022/12/01 07:46:15;;;;;;;29.60;18.30;;;;;;;1.95;85.36;101901.41;100010;1290;99910;-59
2022/12/01 07:48:47;;;;;;;37.60;22.60;;;;;;;1.95;85.33;101902.05;100017;1303;95117;-57
2022/12/01 07:51:21;;;;;;;27.70;16.90;;;;;;;1.94;85.41;101903.60;100016;1297;83100;-56
2022/12/01 07:53:52;;;;;;;29.80;19.00;;;;;;;1.92;85.52;101904.39;100041;1296;88868;-56
2022/12/01 07:56:24;;;;;;;31.00;19.90;;;;;;;1.99;85.31;101903.45;100055;1304;80587;-57
2022/12/01 07:58:56;;;;;;;34.30;21.10;;;;;;;1.96;85.41;101905.38;100025;1296;98633;-59
2022/12/01 08:01:29;;;;;;;35.80;21.10;;;;;;;2.03;85.39;101899.29;100022;1297;94439;-59
2022/12/01 08:04:01;;;;;;;32.30;20.10;;;;;;;2.06;85.25;101900.33;100014;1303;81359;-57
2022/12/01 08:06:33;;;;;;;30.20;19.60;;;;;;;2.10;85.30;101901.63;100023;1298;89519;-56
2022/12/01 08:09:06;;;;;;;48.80;26.70;;;;;;;2.14;85.31;101902.46;100053;1298;79508;-57
2022/12/01 08:11:40;;;;;;;27.20;17.90;;;;;;;2.12;85.29;101896.54;99994;1294;98956;-56
2022/12/01 08:14:11;;;;;;;37.00;22.50;;;;;;;2.15;85.17;101903.62;99974;1296;94191;-56
2022/12/01 08:16:48;;;;;;;29.80;19.20;;;;;;;2.15;85.22;101903.66;100014;1296;83417;-56
2022/12/01 08:19:19;;;;;;;35.90;20.90;;;;;;;2.17;85.24;101893.38;100066;1297;88139;-59
2022/12/01 08:21:48;;;;;;;24.70;17.00;;;;;;;2.25;85.17;101894.45;100032;1305;79535;-58
2022/12/01 08:24:23;;;;;;;43.50;24.40;;;;;;;2.23;85.10;101897.95;100045;1296;99218;-60
2022/12/01 08:26:55;;;;;;;35.70;22.30;;;;;;;2.21;85.06;101896.31;100058;1297;94775;-59
2022/12/01 08:29:27;;;;;;;27.10;18.60;;;;;;;2.17;85.17;101899.91;100095;1303;81808;-58
2022/12/01 08:32:01;;;;;;;42.40;24.40;;;;;;;2.20;85.13;101900.24;100085;1296;86704;-60
2022/12/01 08:34:37;;;;;;;58.00;26.10;;;;;;;2.23;85.05;101891.87;100028;1297;80880;-57
2022/12/01 08:37:07;;;;;;;28.90;18.10;;;;;;;2.24;85.07;101895.05;100032;1297;97529;-58
2022/12/01 08:39:41;;;;;;;32.20;18.90;;;;;;;2.24;85.15;101901.23;100028;1304;93374;-58
2022/12/01 08:42:12;;;;;;;25.80;16.40;;;;;;;2.26;85.12;101904.14;95664;1298;3010971;-58
2022/12/01 08:44:49;;;;;;;26.30;15.70;;;;;;;2.32;85.14;101905.02;100037;1303;87348;-62
2022/12/01 08:47:20;;;;;;;32.00;18.00;;;;;;;2.33;85.02;101906.34;100040;1300;80194;-62
2022/12/01 08:49:55;;;;;;;23.60;16.60;;;;;;;2.28;84.95;101907.25;100023;1297;100288;-59
2022/12/01 08:52:24;;;;;;;26.30;16.50;;;;;;;2.26;84.84;101908.61;100029;1290;95004;-59
2022/12/01 08:54:59;;;;;;;28.80;18.70;;;;;;;2.33;84.90;101908.31;100056;1297;81491;-59
2022/12/01 08:57:41;;;;;;;23.40;17.00;;;;;;;2.35;84.81;101908.54;100028;1297;89203;-59
2022/12/01 09:00:17;;;;;;;27.00;16.50;;;;;;;2.36;84.72;101912.56;100037;1291;81487;-59
2022/12/01 09:02:50;;;;;;;32.80;18.50;;;;;;;2.38;84.53;101912.22;100076;1296;98693;-60
2022/12/01 09:05:21;;;;;;;32.10;20.00;;;;;;;2.42;84.53;101915.92;100109;1299;94747;-61
2022/12/01 09:08:30;;;;;;;27.30;18.10;;;;;;;2.39;84.51;101913.98;100105;1297;82003;-58
2022/12/01 09:10:59;;;;;;;52.50;26.40;;;;;;;2.40;84.51;101914.64;100031;1299;87551;-58
2022/12/01 09:13:31;;;;;;;49.50;26.60;;;;;;;2.35;84.55;101915.48;100056;1303;78157;-58
2022/12/01 09:16:02;;;;;;;34.90;20.90;;;;;;;2.32;84.54;101912.96;100027;1304;98074;-59
2022/12/01 09:18:34;;;;;;;31.60;19.90;;;;;;;2.27;84.48;101913.34;100017;1297;94395;-60
2022/12/01 09:21:12;;;;;;;40.70;24.90;;;;;;;2.25;84.56;101916.30;99888;1300;81826;-61
2022/12/01 09:23:43;;;;;;;30.70;19.10;;;;;;;2.20;84.64;101915.95;100028;1297;88428;-61
2022/12/01 09:26:17;;;;;;;31.90;22.10;;;;;;;2.18;84.60;101916.21;100042;1296;79221;-61
2022/12/01 09:28:53;;;;;;;35.60;22.60;;;;;;;2.18;84.64;101916.23;99965;1300;99465;-60
2022/12/01 09:31:24;;;;;;;31.20;20.40;;;;;;;2.16;84.73;101914.40;100085;1296;94986;-61
2022/12/01 09:34:02;;;;;;;30.90;20.10;;;;;;;2.13;84.65;101912.83;100077;1297;83585;-57
2022/12/01 09:36:34;;;;;;;37.00;23.00;;;;;;;2.14;84.63;101907.42;100091;1304;86382;-57
2022/12/01 09:39:07;;;;;;;35.50;22.30;;;;;;;2.08;84.81;101906.02;99996;1297;80562;-61
2022/12/01 09:41:42;;;;;;;38.50;22.80;;;;;;;2.13;84.87;101908.88;100023;1298;99659;-61
2022/12/01 09:44:31;;;;;;;39.90;23.10;;;;;;;2.19;84.82;101907.29;99968;1297;93545;-58
2022/12/01 09:47:17;;;;;;;28.60;18.60;;;;;;;2.16;84.98;101901.58;99956;1296;81550;-58
2022/12/01 09:49:56;;;;;;;37.90;23.20;;;;;;;2.16;85.08;101906.04;99981;1297;88289;-61
2022/12/01 09:52:38;;;;;;;41.90;24.20;;;;;;;2.21;84.94;101908.36;99942;1296;81453;-61
2022/12/01 09:55:16;;;;;;;35.10;20.90;;;;;;;2.21;84.88;101905.91;99953;1303;98398;-58
2022/12/01 09:57:49;;;;;;;36.90;24.10;;;;;;;2.21;84.91;101904.51;99970;1303;93030;-58
2022/12/01 10:00:23;;;;;;;33.60;21.00;;;;;;;2.22;84.83;101902.29;99926;1290;80747;-58
2022/12/01 10:03:02;;;;;;;30.20;20.80;;;;;;;2.18;84.91;101902.71;99969;1296;87108;-60
2022/12/01 10:05:45;;;;;;;41.40;24.30;;;;;;;2.19;84.89;101897.49;99943;1304;80489;-61
2022/12/01 10:08:22;;;;;;;34.30;22.00;;;;;;;2.18;84.91;101897.59;100015;1297;98431;-60
2022/12/01 10:10:58;;;;;;;34.80;22.50;;;;;;;2.18;84.82;101896.13;100015;1296;95464;-60
2022/12/01 10:13:34;;;;;;;38.10;23.30;;;;;;;2.17;84.84;101892.80;99992;1296;82213;-59
2022/12/01 10:16:09;;;;;;;35.60;20.60;;;;;;;2.08;85.08;101898.39;99962;1297;87725;-60
2022/12/01 10:18:55;;;;;;;36.10;22.60;;;;;;;2.06;84.97;101896.42;99981;1297;80764;-59
2022/12/01 10:21:46;;;;;;;33.40;21.30;;;;;;;2.04;85.05;101895.29;99946;1296;98622;-60
2022/12/01 10:24:46;;;;;;;37.40;21.20;;;;;;;2.09;85.19;101892.81;99938;1304;95134;-58
2022/12/01 10:27:32;;;;;;;31.90;20.50;;;;;;;2.11;85.18;101885.41;99955;1303;82241;-58
2022/12/01 10:30:17;;;;;;;38.00;22.20;;;;;;;2.10;85.18;101887.25;99903;1306;87243;-61
2022/12/01 10:32:55;;;;;;;30.60;18.90;;;;;;;2.03;85.31;101886.98;99976;1296;81363;-58
2022/12/01 10:35:34;;;;;;;34.10;18.00;;;;;;;1.96;85.20;101883.75;100004;1296;98301;-58
2022/12/01 10:38:17;;;;;;;28.40;18.50;;;;;;;1.91;85.23;101876.42;99999;1293;95034;-58
2022/12/01 10:40:52;;;;;;;24.90;16.60;;;;;;;1.93;85.26;101875.04;100004;1297;82537;-58
2022/12/01 10:43:28;;;;;;;25.90;16.60;;;;;;;1.92;85.28;101869.77;100062;1303;88605;-60
2022/12/01 10:46:08;;;;;;;24.80;15.60;;;;;;;1.93;85.22;101870.44;100031;1297;81855;-60
2022/12/01 10:48:57;;;;;;;28.30;17.60;;;;;;;1.96;85.13;101870.58;100066;1297;99113;-60
2022/12/01 10:51:28;;;;;;;32.10;19.40;;;;;;;1.99;85.19;101866.33;100011;1297;94956;-60
2022/12/01 10:54:11;;;;;;;45.20;23.00;;;;;;;2.01;85.14;101859.04;100048;1297;81939;-60
2022/12/01 10:56:45;;;;;;;26.90;16.90;;;;;;;2.01;85.21;101860.30;100031;1304;88740;-60
2022/12/01 10:59:29;;;;;;;25.80;16.70;;;;;;;2.06;85.17;101858.36;100053;1297;80177;-59
2022/12/01 11:02:02;;;;;;;28.20;16.90;;;;;;;2.11;85.19;101859.06;100005;1294;97642;-60
2022/12/01 11:04:58;;;;;;;26.30;16.80;;;;;;;2.17;85.09;101851.27;100027;1304;95285;-60
2022/12/01 11:07:32;;;;;;;28.80;16.70;;;;;;;2.18;85.04;101850.08;100057;1298;82633;-59
2022/12/01 11:10:26;;;;;;;28.60;17.30;;;;;;;2.16;85.06;101852.55;100071;1296;89187;-60
2022/12/01 11:13:03;;;;;;;27.40;16.60;;;;;;;2.19;84.97;101849.17;100070;1298;79543;-57
2022/12/01 11:15:39;;;;;;;25.30;16.60;;;;;;;2.21;84.86;101844.74;100040;1295;97292;-57
2022/12/01 11:18:24;;;;;;;24.80;16.10;;;;;;;2.16;84.83;101847.02;99963;1301;92825;-60
2022/12/01 11:21:16;;;;;;;27.20;16.60;;;;;;;2.20;84.67;101838.08;100008;1297;80867;-61
2022/12/01 11:23:56;;;;;;;27.30;16.50;;;;;;;2.21;84.72;101837.66;100018;1297;89240;-60
2022/12/01 11:26:31;;;;;;;25.30;16.90;;;;;;;2.25;84.61;101835.95;99999;1298;81667;-60
2022/12/01 11:29:05;;;;;;;27.70;17.60;;;;;;;2.25;84.57;101842.03;100062;1298;98595;-58
2022/12/01 11:31:43;;;;;;;26.00;16.90;;;;;;;2.20;84.48;101838.93;100040;1290;93498;-58
2022/12/01 11:34:24;;;;;;;26.90;18.10;;;;;;;2.22;84.32;101834.94;100076;1297;80790;-58
2022/12/01 11:36:58;;;;;;;26.70;17.70;;;;;;;2.21;84.32;101833.23;99983;1297;88506;-58
2022/12/01 11:39:32;;;;;;;25.50;18.00;;;;;;;2.15;84.23;101839.14;100038;1297;79048;-61
2022/12/01 11:42:06;;;;;;;26.20;18.40;;;;;;;2.06;84.27;101837.56;100080;1304;98489;-61
2022/12/01 11:44:38;;;;;;;28.50;18.30;;;;;;;2.03;84.30;101838.31;100052;1298;94934;-57
2022/12/01 11:47:19;;;;;;;28.80;17.60;;;;;;;2.02;84.18;101842.50;100057;1296;81595;-57
2022/12/01 11:49:56;;;;;;;30.60;18.70;;;;;;;2.00;84.23;101844.69;99896;1300;91324;-57
2022/12/01 11:52:36;;;;;;;28.70;18.00;;;;;;;2.00;84.25;101840.30;100055;1293;79113;-57